Blenheim, Canada
Current Conditions -  °F | °C
As of 8:20 AM on Sunday 23 Nov 2014 (Local Time) from CYCK Reporting Station
Light Rain Light Rain  
Wind Chill: 37°   Ceiling: 3200
Heat Index: 45°   Visibility: 9mi
Dew Point: 43°   Wind: 18mph
Humidity: 93%   Direction: 190°S
Pressure: 29.96"   Gusts: NA
Location:  42.33°N, 82°W
Report Text: CYCK 231320Z AUTO 19016KT 9SM -RA OVC032 07/06 A2996 RMK SLP150
Loading
Personal Weather Stations






























Interactive Weather Map New forecast layout! Learn more

10-Day Weather Forecast

Advertisements
Track Severe Weather on mobile